FIMP METAR and TAF | Updated Today

FIMP METAR

Sir Seewoosagur Ramgoolam International Airport

Observation time: 55 min. ago

FIMP 010800Z 09008KT 9999 SCT017 BKN050 24/17 Q1021

Need help? Read our tutorial on how to read METARs or read the parsed version below.

Sir Seewoosagur Ramgoolam International Airport (FIMP) METAR

  • Weather conditions on Sat, 01 Oct 2022 08:00:00 +0000 (55 min. ago):
  • Present conditions: Dry
  • Clouds: Scattered at 518 meters; broken sky at 1524 meters
  • Visibility: Greater than 10 km
  • Wind: 90 degrees at 8 knots
  • Temperature: 24 celsius
  • Dew point: 17 celsius
  • Pressure: 1021 millibars
  • Remarks: None


Useful to know...

FIMP TAF

Sir Seewoosagur Ramgoolam International Airport

TAF COR FIMP 010500Z 0106/0212 13010G20KT 9999 BKN016 TEMPO 0106/0118 5000 -SHRA BKN015
Observation time: 3:55 hr. ago
Need help? Read our tutorial on how to read TAFs or read the parsed version below.

Parsed version of TAF for Sir Seewoosagur Ramgoolam International Airport (FIMP)

  • From 01 October at 06:00 UTC, to day 02 of the month at 12:00 UTC
  • Clouds: Broken sky at 488 meters
  • Visibility: Greater than 10 km
  • Wind: 130 degrees at 10
  • Expected to arise temporarily, from 01 October at 06:00 UTC, to day 01 of the month at 18:00 UTC
  • Clouds: Broken sky at 457 meters
  • Visibility: 5000 meters
  • Other: Light showers of rain

Airports near FIMP

No airports found within 100nm radius.